Kenyon, Minnesota
Current Conditions -  °F | °C
As of 11:14 AM on Saturday 25 Oct 2014 (Local Time) from KSYN Reporting Station
Clear Clear  
Wind Chill: 58°   Ceiling: Unl
Heat Index: 58°   Visibility: 10mi
Dew Point: 33°   Wind: 15mph
Humidity: 39%   Direction: 300°WNW
Pressure: 30.05"   Gusts: 18mph
Location:  44.27°N, 92.99°W
Report Text: KSYN 251614Z AUTO 30013G16KT 10SM CLR 15/01 A3005 RMK AO2 T01450007
Loading
Personal Weather Stations






























Interactive Weather Map New forecast layout! Learn more

10-Day Weather Forecast

Advertisements
Track Severe Weather on mobile